sensor_id;sensor_type;location;lat;lon;timestamp;temperature;humidity
24448;DHT22;13348;50.984;5.822;2024-01-30T00:00:19;9.60;99.90
24448;DHT22;13348;50.984;5.822;2024-01-30T00:02:48;9.60;99.90
24448;DHT22;13348;50.984;5.822;2024-01-30T00:05:15;9.60;99.90
24448;DHT22;13348;50.984;5.822;2024-01-30T00:07:42;9.50;99.90
24448;DHT22;13348;50.984;5.822;2024-01-30T00:10:10;9.50;99.90
24448;DHT22;13348;50.984;5.822;2024-01-30T00:12:37;9.40;99.90
24448;DHT22;13348;50.984;5.822;2024-01-30T00:15:04;9.40;99.90
24448;DHT22;13348;50.984;5.822;2024-01-30T00:17:34;9.40;99.90
24448;DHT22;13348;50.984;5.822;2024-01-30T00:20:03;9.40;99.90
24448;DHT22;13348;50.984;5.822;2024-01-30T00:22:31;9.40;99.90
24448;DHT22;13348;50.984;5.822;2024-01-30T00:24:58;9.50;99.90
24448;DHT22;13348;50.984;5.822;2024-01-30T00:27:25;9.40;99.90
24448;DHT22;13348;50.984;5.822;2024-01-30T00:29:52;9.40;99.90
24448;DHT22;13348;50.984;5.822;2024-01-30T00:32:19;9.50;99.90
24448;DHT22;13348;50.984;5.822;2024-01-30T00:34:46;9.50;99.90
24448;DHT22;13348;50.984;5.822;2024-01-30T00:37:14;9.50;99.90
24448;DHT22;13348;50.984;5.822;2024-01-30T00:39:41;9.50;99.90
24448;DHT22;13348;50.984;5.822;2024-01-30T00:42:08;9.60;99.90
24448;DHT22;13348;50.984;5.822;2024-01-30T00:44:35;9.50;99.90
24448;DHT22;13348;50.984;5.822;2024-01-30T00:47:04;9.60;99.90
24448;DHT22;13348;50.984;5.822;2024-01-30T00:49:30;9.60;99.90
24448;DHT22;13348;50.984;5.822;2024-01-30T00:51:58;9.60;99.90
24448;DHT22;13348;50.984;5.822;2024-01-30T00:54:26;9.60;99.90
24448;DHT22;13348;50.984;5.822;2024-01-30T00:56:53;9.60;99.90
24448;DHT22;13348;50.984;5.822;2024-01-30T00:59:20;9.70;99.90
24448;DHT22;13348;50.984;5.822;2024-01-30T01:01:47;9.70;99.90
24448;DHT22;13348;50.984;5.822;2024-01-30T01:04:14;9.80;99.90
24448;DHT22;13348;50.984;5.822;2024-01-30T01:06:41;9.80;99.90
24448;DHT22;13348;50.984;5.822;2024-01-30T01:09:10;9.70;99.90
24448;DHT22;13348;50.984;5.822;2024-01-30T01:11:38;9.80;99.90
24448;DHT22;13348;50.984;5.822;2024-01-30T01:14:05;9.70;99.90
24448;DHT22;13348;50.984;5.822;2024-01-30T01:16:32;9.70;99.90
24448;DHT22;13348;50.984;5.822;2024-01-30T01:18:59;9.70;99.90
24448;DHT22;13348;50.984;5.822;2024-01-30T01:21:27;9.80;99.90
24448;DHT22;13348;50.984;5.822;2024-01-30T01:23:54;9.90;99.90
24448;DHT22;13348;50.984;5.822;2024-01-30T01:26:21;10.00;99.90
24448;DHT22;13348;50.984;5.822;2024-01-30T01:28:49;10.00;99.90
24448;DHT22;13348;50.984;5.822;2024-01-30T01:31:16;10.00;99.90
24448;DHT22;13348;50.984;5.822;2024-01-30T01:33:43;10.10;99.90
24448;DHT22;13348;50.984;5.822;2024-01-30T01:36:10;10.00;99.90
24448;DHT22;13348;50.984;5.822;2024-01-30T01:38:37;9.90;99.90
24448;DHT22;13348;50.984;5.822;2024-01-30T01:41:04;9.90;99.90
24448;DHT22;13348;50.984;5.822;2024-01-30T01:43:31;10.00;99.90
24448;DHT22;13348;50.984;5.822;2024-01-30T01:45:59;10.00;99.90
24448;DHT22;13348;50.984;5.822;2024-01-30T01:48:27;10.00;99.90
24448;DHT22;13348;50.984;5.822;2024-01-30T01:50:54;10.00;99.90
24448;DHT22;13348;50.984;5.822;2024-01-30T01:53:21;9.90;99.90
24448;DHT22;13348;50.984;5.822;2024-01-30T01:55:48;10.00;99.90
24448;DHT22;13348;50.984;5.822;2024-01-30T01:58:15;10.00;99.90
24448;DHT22;13348;50.984;5.822;2024-01-30T02:00:42;9.90;99.90
24448;DHT22;13348;50.984;5.822;2024-01-30T02:03:11;9.80;99.90
24448;DHT22;13348;50.984;5.822;2024-01-30T02:05:40;9.80;99.90
24448;DHT22;13348;50.984;5.822;2024-01-30T02:08:07;9.80;99.90
24448;DHT22;13348;50.984;5.822;2024-01-30T02:10:35;9.90;99.90
24448;DHT22;13348;50.984;5.822;2024-01-30T02:13:02;9.90;99.90
24448;DHT22;13348;50.984;5.822;2024-01-30T02:15:30;10.00;99.90
24448;DHT22;13348;50.984;5.822;2024-01-30T02:17:57;10.10;99.90
24448;DHT22;13348;50.984;5.822;2024-01-30T02:20:25;10.20;99.90
24448;DHT22;13348;50.984;5.822;2024-01-30T02:22:55;10.20;99.90
24448;DHT22;13348;50.984;5.822;2024-01-30T02:25:29;10.30;99.90
24448;DHT22;13348;50.984;5.822;2024-01-30T02:27:56;10.40;99.90
24448;DHT22;13348;50.984;5.822;2024-01-30T02:30:23;10.40;99.90
24448;DHT22;13348;50.984;5.822;2024-01-30T02:32:50;10.40;99.90
24448;DHT22;13348;50.984;5.822;2024-01-30T02:35:17;10.50;99.90
24448;DHT22;13348;50.984;5.822;2024-01-30T02:37:44;10.50;99.90
24448;DHT22;13348;50.984;5.822;2024-01-30T02:40:12;10.50;99.90
24448;DHT22;13348;50.984;5.822;2024-01-30T02:42:39;10.40;99.90
24448;DHT22;13348;50.984;5.822;2024-01-30T02:45:07;10.50;99.90
24448;DHT22;13348;50.984;5.822;2024-01-30T02:47:34;10.60;99.90
24448;DHT22;13348;50.984;5.822;2024-01-30T02:50:01;10.50;99.90
24448;DHT22;13348;50.984;5.822;2024-01-30T02:52:28;10.60;99.90
24448;DHT22;13348;50.984;5.822;2024-01-30T02:54:55;10.60;99.90
24448;DHT22;13348;50.984;5.822;2024-01-30T02:57:23;10.40;99.90
24448;DHT22;13348;50.984;5.822;2024-01-30T02:59:50;10.50;99.90
24448;DHT22;13348;50.984;5.822;2024-01-30T03:02:17;10.40;99.90
24448;DHT22;13348;50.984;5.822;2024-01-30T03:04:44;10.40;99.90
24448;DHT22;13348;50.984;5.822;2024-01-30T03:07:10;10.50;99.90
24448;DHT22;13348;50.984;5.822;2024-01-30T03:09:38;10.70;99.90
24448;DHT22;13348;50.984;5.822;2024-01-30T03:12:05;10.70;99.90
24448;DHT22;13348;50.984;5.822;2024-01-30T03:14:33;10.70;99.90
24448;DHT22;13348;50.984;5.822;2024-01-30T03:17:00;10.70;99.90
24448;DHT22;13348;50.984;5.822;2024-01-30T03:19:27;10.60;99.90
24448;DHT22;13348;50.984;5.822;2024-01-30T03:21:54;10.60;99.90
24448;DHT22;13348;50.984;5.822;2024-01-30T03:24:20;10.70;99.90
24448;DHT22;13348;50.984;5.822;2024-01-30T03:26:47;10.80;99.90
24448;DHT22;13348;50.984;5.822;2024-01-30T03:29:14;10.90;99.90
24448;DHT22;13348;50.984;5.822;2024-01-30T03:31:43;11.00;99.90
24448;DHT22;13348;50.984;5.822;2024-01-30T03:34:09;11.00;99.90
24448;DHT22;13348;50.984;5.822;2024-01-30T03:36:36;11.00;99.90
24448;DHT22;13348;50.984;5.822;2024-01-30T03:39:03;11.00;99.90
24448;DHT22;13348;50.984;5.822;2024-01-30T03:41:30;11.10;99.90
24448;DHT22;13348;50.984;5.822;2024-01-30T03:43:57;11.20;99.90
24448;DHT22;13348;50.984;5.822;2024-01-30T03:46:24;11.10;99.90
24448;DHT22;13348;50.984;5.822;2024-01-30T03:48:52;11.00;99.90
24448;DHT22;13348;50.984;5.822;2024-01-30T03:51:19;11.00;99.90
24448;DHT22;13348;50.984;5.822;2024-01-30T03:53:46;11.10;99.90
24448;DHT22;13348;50.984;5.822;2024-01-30T03:56:13;11.10;99.90
24448;DHT22;13348;50.984;5.822;2024-01-30T03:58:40;11.20;99.90
24448;DHT22;13348;50.984;5.822;2024-01-30T04:01:07;11.20;99.90
24448;DHT22;13348;50.984;5.822;2024-01-30T04:03:39;11.30;99.90
24448;DHT22;13348;50.984;5.822;2024-01-30T04:06:07;11.20;99.90
24448;DHT22;13348;50.984;5.822;2024-01-30T04:08:34;11.30;99.90
24448;DHT22;13348;50.984;5.822;2024-01-30T04:11:03;11.20;99.90
24448;DHT22;13348;50.984;5.822;2024-01-30T04:13:31;11.10;99.90
24448;DHT22;13348;50.984;5.822;2024-01-30T04:15:58;11.20;99.90
24448;DHT22;13348;50.984;5.822;2024-01-30T04:18:25;11.20;99.90
24448;DHT22;13348;50.984;5.822;2024-01-30T04:20:52;11.10;99.90
24448;DHT22;13348;50.984;5.822;2024-01-30T04:23:20;11.00;99.90
24448;DHT22;13348;50.984;5.822;2024-01-30T04:25:47;11.00;99.90
24448;DHT22;13348;50.984;5.822;2024-01-30T04:28:14;10.90;99.90
24448;DHT22;13348;50.984;5.822;2024-01-30T04:30:41;11.00;99.90
24448;DHT22;13348;50.984;5.822;2024-01-30T04:33:08;11.00;99.90
24448;DHT22;13348;50.984;5.822;2024-01-30T04:35:34;10.90;99.90
24448;DHT22;13348;50.984;5.822;2024-01-30T04:38:02;10.90;99.90
24448;DHT22;13348;50.984;5.822;2024-01-30T04:40:30;10.90;99.90
24448;DHT22;13348;50.984;5.822;2024-01-30T04:42:57;11.00;99.90
24448;DHT22;13348;50.984;5.822;2024-01-30T04:45:24;11.10;99.90
24448;DHT22;13348;50.984;5.822;2024-01-30T04:47:51;11.20;99.90
24448;DHT22;13348;50.984;5.822;2024-01-30T04:50:18;11.20;99.90
24448;DHT22;13348;50.984;5.822;2024-01-30T04:52:45;11.20;99.90
24448;DHT22;13348;50.984;5.822;2024-01-30T04:55:11;11.20;99.90
24448;DHT22;13348;50.984;5.822;2024-01-30T04:57:40;11.30;99.90
24448;DHT22;13348;50.984;5.822;2024-01-30T05:00:07;11.40;99.90
24448;DHT22;13348;50.984;5.822;2024-01-30T05:02:34;11.40;99.90
24448;DHT22;13348;50.984;5.822;2024-01-30T05:05:01;11.50;99.90
24448;DHT22;13348;50.984;5.822;2024-01-30T05:07:28;11.40;99.90
24448;DHT22;13348;50.984;5.822;2024-01-30T05:09:55;11.40;99.90
24448;DHT22;13348;50.984;5.822;2024-01-30T05:12:22;11.30;99.90
24448;DHT22;13348;50.984;5.822;2024-01-30T05:14:50;11.30;99.90
24448;DHT22;13348;50.984;5.822;2024-01-30T05:17:17;11.30;99.90
24448;DHT22;13348;50.984;5.822;2024-01-30T05:19:44;11.30;99.90
24448;DHT22;13348;50.984;5.822;2024-01-30T05:22:11;11.30;99.90
24448;DHT22;13348;50.984;5.822;2024-01-30T05:24:40;11.30;99.90
24448;DHT22;13348;50.984;5.822;2024-01-30T05:27:08;11.30;99.90
24448;DHT22;13348;50.984;5.822;2024-01-30T05:29:35;11.30;99.90
24448;DHT22;13348;50.984;5.822;2024-01-30T05:32:03;11.30;99.90
24448;DHT22;13348;50.984;5.822;2024-01-30T05:34:30;11.30;99.90
24448;DHT22;13348;50.984;5.822;2024-01-30T05:36:57;11.30;99.90
24448;DHT22;13348;50.984;5.822;2024-01-30T05:39:24;11.30;99.90
24448;DHT22;13348;50.984;5.822;2024-01-30T05:41:51;11.20;99.90
24448;DHT22;13348;50.984;5.822;2024-01-30T05:44:18;11.10;99.90
24448;DHT22;13348;50.984;5.822;2024-01-30T05:46:45;11.20;99.90
24448;DHT22;13348;50.984;5.822;2024-01-30T05:49:13;11.20;99.90
24448;DHT22;13348;50.984;5.822;2024-01-30T05:51:40;11.20;99.90
24448;DHT22;13348;50.984;5.822;2024-01-30T05:54:07;11.20;99.90
24448;DHT22;13348;50.984;5.822;2024-01-30T05:56:34;11.20;99.90
24448;DHT22;13348;50.984;5.822;2024-01-30T05:59:01;11.10;99.90
24448;DHT22;13348;50.984;5.822;2024-01-30T06:01:28;11.00;99.90
24448;DHT22;13348;50.984;5.822;2024-01-30T06:03:55;11.10;99.90
24448;DHT22;13348;50.984;5.822;2024-01-30T06:06:23;11.00;99.90
24448;DHT22;13348;50.984;5.822;2024-01-30T06:08:50;11.10;99.90
24448;DHT22;13348;50.984;5.822;2024-01-30T06:11:17;11.10;99.90
24448;DHT22;13348;50.984;5.822;2024-01-30T06:13:44;11.10;99.90
24448;DHT22;13348;50.984;5.822;2024-01-30T06:16:11;11.10;99.90
24448;DHT22;13348;50.984;5.822;2024-01-30T06:18:38;11.20;99.90
24448;DHT22;13348;50.984;5.822;2024-01-30T06:21:05;11.10;99.90
24448;DHT22;13348;50.984;5.822;2024-01-30T06:23:33;11.10;99.90
24448;DHT22;13348;50.984;5.822;2024-01-30T06:26:00;11.10;99.90
24448;DHT22;13348;50.984;5.822;2024-01-30T06:28:27;11.10;99.90
24448;DHT22;13348;50.984;5.822;2024-01-30T06:30:54;11.00;99.90
24448;DHT22;13348;50.984;5.822;2024-01-30T06:33:20;11.00;99.90
24448;DHT22;13348;50.984;5.822;2024-01-30T06:35:48;11.00;99.90
24448;DHT22;13348;50.984;5.822;2024-01-30T06:38:14;11.10;99.90
24448;DHT22;13348;50.984;5.822;2024-01-30T06:40:43;11.00;99.90
24448;DHT22;13348;50.984;5.822;2024-01-30T06:43:10;11.00;99.90
24448;DHT22;13348;50.984;5.822;2024-01-30T06:45:37;11.00;99.90
24448;DHT22;13348;50.984;5.822;2024-01-30T06:48:04;11.00;99.90
24448;DHT22;13348;50.984;5.822;2024-01-30T06:50:31;10.90;99.90
24448;DHT22;13348;50.984;5.822;2024-01-30T06:52:58;11.00;99.90
24448;DHT22;13348;50.984;5.822;2024-01-30T06:55:24;11.20;99.90
24448;DHT22;13348;50.984;5.822;2024-01-30T06:57:53;11.20;99.90
24448;DHT22;13348;50.984;5.822;2024-01-30T07:00:19;11.20;99.90
24448;DHT22;13348;50.984;5.822;2024-01-30T07:02:46;11.20;99.90
24448;DHT22;13348;50.984;5.822;2024-01-30T07:05:13;11.30;99.90
24448;DHT22;13348;50.984;5.822;2024-01-30T07:07:40;11.30;99.90
24448;DHT22;13348;50.984;5.822;2024-01-30T07:10:08;11.30;99.90
24448;DHT22;13348;50.984;5.822;2024-01-30T07:12:35;11.30;99.90
24448;DHT22;13348;50.984;5.822;2024-01-30T07:15:04;11.30;99.90
24448;DHT22;13348;50.984;5.822;2024-01-30T07:17:33;11.20;99.90
24448;DHT22;13348;50.984;5.822;2024-01-30T07:20:00;11.10;99.90
24448;DHT22;13348;50.984;5.822;2024-01-30T07:22:28;11.10;99.90
24448;DHT22;13348;50.984;5.822;2024-01-30T07:24:55;11.20;99.90
24448;DHT22;13348;50.984;5.822;2024-01-30T07:27:22;11.10;99.90
24448;DHT22;13348;50.984;5.822;2024-01-30T07:29:49;11.10;99.90
24448;DHT22;13348;50.984;5.822;2024-01-30T07:32:17;11.10;99.90
24448;DHT22;13348;50.984;5.822;2024-01-30T07:34:45;11.10;99.90
24448;DHT22;13348;50.984;5.822;2024-01-30T07:37:12;11.20;99.90
24448;DHT22;13348;50.984;5.822;2024-01-30T07:39:41;11.20;99.90
24448;DHT22;13348;50.984;5.822;2024-01-30T07:42:08;11.20;99.90
24448;DHT22;13348;50.984;5.822;2024-01-30T07:44:35;11.20;99.90
24448;DHT22;13348;50.984;5.822;2024-01-30T07:47:02;11.20;99.90
24448;DHT22;13348;50.984;5.822;2024-01-30T07:49:31;11.20;99.90
24448;DHT22;13348;50.984;5.822;2024-01-30T07:52:04;11.10;99.90
24448;DHT22;13348;50.984;5.822;2024-01-30T07:54:32;11.00;99.90
24448;DHT22;13348;50.984;5.822;2024-01-30T07:57:00;11.00;99.90
24448;DHT22;13348;50.984;5.822;2024-01-30T07:59:27;11.10;99.90
24448;DHT22;13348;50.984;5.822;2024-01-30T08:02:03;11.20;99.90
24448;DHT22;13348;50.984;5.822;2024-01-30T08:04:31;11.10;99.90
24448;DHT22;13348;50.984;5.822;2024-01-30T08:06:58;11.20;99.90
24448;DHT22;13348;50.984;5.822;2024-01-30T08:09:25;11.20;99.90
24448;DHT22;13348;50.984;5.822;2024-01-30T08:11:52;11.10;99.90
24448;DHT22;13348;50.984;5.822;2024-01-30T08:14:18;11.20;99.90
24448;DHT22;13348;50.984;5.822;2024-01-30T08:16:45;11.10;99.90
24448;DHT22;13348;50.984;5.822;2024-01-30T08:19:12;11.10;99.90
24448;DHT22;13348;50.984;5.822;2024-01-30T08:21:41;11.10;99.90
24448;DHT22;13348;50.984;5.822;2024-01-30T08:24:07;11.10;99.90
24448;DHT22;13348;50.984;5.822;2024-01-30T08:26:34;11.00;99.90
24448;DHT22;13348;50.984;5.822;2024-01-30T08:29:02;11.00;99.90
24448;DHT22;13348;50.984;5.822;2024-01-30T08:31:29;11.00;99.90
24448;DHT22;13348;50.984;5.822;2024-01-30T08:33:56;11.00;99.90
24448;DHT22;13348;50.984;5.822;2024-01-30T08:36:24;11.00;99.90
24448;DHT22;13348;50.984;5.822;2024-01-30T08:38:53;11.00;99.90
24448;DHT22;13348;50.984;5.822;2024-01-30T08:41:20;11.10;99.90
24448;DHT22;13348;50.984;5.822;2024-01-30T08:43:47;11.20;99.90
24448;DHT22;13348;50.984;5.822;2024-01-30T08:46:17;11.30;99.90
24448;DHT22;13348;50.984;5.822;2024-01-30T08:48:44;11.40;99.90
24448;DHT22;13348;50.984;5.822;2024-01-30T08:51:11;11.50;99.90
24448;DHT22;13348;50.984;5.822;2024-01-30T08:53:38;11.50;99.90
24448;DHT22;13348;50.984;5.822;2024-01-30T08:56:07;11.60;99.90
24448;DHT22;13348;50.984;5.822;2024-01-30T08:58:34;11.60;99.90
24448;DHT22;13348;50.984;5.822;2024-01-30T09:01:01;11.60;99.90
24448;DHT22;13348;50.984;5.822;2024-01-30T09:03:29;11.70;99.90
24448;DHT22;13348;50.984;5.822;2024-01-30T09:05:56;11.80;99.90
24448;DHT22;13348;50.984;5.822;2024-01-30T09:08:23;11.90;99.90
24448;DHT22;13348;50.984;5.822;2024-01-30T09:10:50;11.90;99.90
24448;DHT22;13348;50.984;5.822;2024-01-30T09:13:18;11.90;99.90
24448;DHT22;13348;50.984;5.822;2024-01-30T09:15:45;11.90;99.90
24448;DHT22;13348;50.984;5.822;2024-01-30T09:18:12;11.90;99.90
24448;DHT22;13348;50.984;5.822;2024-01-30T09:20:39;11.80;99.90
24448;DHT22;13348;50.984;5.822;2024-01-30T09:23:06;11.80;99.90
24448;DHT22;13348;50.984;5.822;2024-01-30T09:25:33;11.70;99.90
24448;DHT22;13348;50.984;5.822;2024-01-30T09:28:00;11.80;99.90
24448;DHT22;13348;50.984;5.822;2024-01-30T09:30:28;11.80;99.90
24448;DHT22;13348;50.984;5.822;2024-01-30T09:32:55;11.90;99.90
24448;DHT22;13348;50.984;5.822;2024-01-30T09:35:22;12.00;99.90
24448;DHT22;13348;50.984;5.822;2024-01-30T09:37:49;12.00;99.90
24448;DHT22;13348;50.984;5.822;2024-01-30T09:40:17;12.10;99.90
24448;DHT22;13348;50.984;5.822;2024-01-30T09:42:45;12.00;99.90
24448;DHT22;13348;50.984;5.822;2024-01-30T09:45:13;12.00;99.90
24448;DHT22;13348;50.984;5.822;2024-01-30T09:47:42;12.00;99.90
24448;DHT22;13348;50.984;5.822;2024-01-30T09:50:09;12.00;99.90
24448;DHT22;13348;50.984;5.822;2024-01-30T09:52:37;12.00;99.90
24448;DHT22;13348;50.984;5.822;2024-01-30T09:55:04;12.00;99.90
24448;DHT22;13348;50.984;5.822;2024-01-30T09:57:31;12.00;99.90
24448;DHT22;13348;50.984;5.822;2024-01-30T09:59:58;12.10;99.90
24448;DHT22;13348;50.984;5.822;2024-01-30T10:02:25;12.10;99.90
24448;DHT22;13348;50.984;5.822;2024-01-30T10:04:53;12.10;99.90
24448;DHT22;13348;50.984;5.822;2024-01-30T10:07:20;12.10;99.90
24448;DHT22;13348;50.984;5.822;2024-01-30T10:09:47;12.20;99.90
24448;DHT22;13348;50.984;5.822;2024-01-30T10:12:14;12.30;99.90
24448;DHT22;13348;50.984;5.822;2024-01-30T10:14:42;12.40;99.90
24448;DHT22;13348;50.984;5.822;2024-01-30T10:17:09;12.40;99.90
24448;DHT22;13348;50.984;5.822;2024-01-30T10:19:36;12.40;99.90
24448;DHT22;13348;50.984;5.822;2024-01-30T10:22:05;12.40;99.90
24448;DHT22;13348;50.984;5.822;2024-01-30T10:24:33;12.40;99.90
24448;DHT22;13348;50.984;5.822;2024-01-30T10:27:00;12.50;99.90
24448;DHT22;13348;50.984;5.822;2024-01-30T10:29:27;12.50;99.90
24448;DHT22;13348;50.984;5.822;2024-01-30T10:31:58;12.50;99.90
24448;DHT22;13348;50.984;5.822;2024-01-30T10:34:25;12.60;99.90
24448;DHT22;13348;50.984;5.822;2024-01-30T10:36:54;12.60;99.90
24448;DHT22;13348;50.984;5.822;2024-01-30T10:39:26;12.60;99.90
24448;DHT22;13348;50.984;5.822;2024-01-30T10:41:55;12.60;99.90
24448;DHT22;13348;50.984;5.822;2024-01-30T10:44:22;12.60;99.90
24448;DHT22;13348;50.984;5.822;2024-01-30T10:46:50;12.50;99.90
24448;DHT22;13348;50.984;5.822;2024-01-30T10:49:18;12.40;99.90
24448;DHT22;13348;50.984;5.822;2024-01-30T10:51:45;12.40;99.90
24448;DHT22;13348;50.984;5.822;2024-01-30T10:54:13;12.40;99.90
24448;DHT22;13348;50.984;5.822;2024-01-30T10:56:42;12.30;99.90
24448;DHT22;13348;50.984;5.822;2024-01-30T10:59:09;12.40;99.90
24448;DHT22;13348;50.984;5.822;2024-01-30T11:01:36;12.50;99.90
24448;DHT22;13348;50.984;5.822;2024-01-30T11:04:03;12.50;99.90
24448;DHT22;13348;50.984;5.822;2024-01-30T11:06:30;12.50;99.90
24448;DHT22;13348;50.984;5.822;2024-01-30T11:09:00;12.50;99.90
24448;DHT22;13348;50.984;5.822;2024-01-30T11:11:29;12.60;99.90
24448;DHT22;13348;50.984;5.822;2024-01-30T11:14:01;12.60;99.90
24448;DHT22;13348;50.984;5.822;2024-01-30T11:16:30;12.50;99.90
24448;DHT22;13348;50.984;5.822;2024-01-30T11:19:00;12.30;99.90
24448;DHT22;13348;50.984;5.822;2024-01-30T11:21:27;12.20;99.90
24448;DHT22;13348;50.984;5.822;2024-01-30T11:23:54;12.20;99.90
24448;DHT22;13348;50.984;5.822;2024-01-30T11:26:23;12.20;99.90
24448;DHT22;13348;50.984;5.822;2024-01-30T11:28:52;12.30;99.90
24448;DHT22;13348;50.984;5.822;2024-01-30T11:31:22;12.30;99.90
24448;DHT22;13348;50.984;5.822;2024-01-30T11:33:52;12.40;99.90
24448;DHT22;13348;50.984;5.822;2024-01-30T11:36:20;12.40;99.90
24448;DHT22;13348;50.984;5.822;2024-01-30T11:38:50;12.40;99.90
24448;DHT22;13348;50.984;5.822;2024-01-30T11:41:17;12.40;99.90
24448;DHT22;13348;50.984;5.822;2024-01-30T11:43:50;12.30;99.90
24448;DHT22;13348;50.984;5.822;2024-01-30T11:46:17;12.20;99.90
24448;DHT22;13348;50.984;5.822;2024-01-30T11:48:46;12.20;99.90
24448;DHT22;13348;50.984;5.822;2024-01-30T11:51:13;12.10;99.90
24448;DHT22;13348;50.984;5.822;2024-01-30T11:53:40;12.10;99.90
24448;DHT22;13348;50.984;5.822;2024-01-30T11:56:07;12.10;99.90
24448;DHT22;13348;50.984;5.822;2024-01-30T11:58:35;12.00;99.90
24448;DHT22;13348;50.984;5.822;2024-01-30T12:01:02;12.00;99.90
24448;DHT22;13348;50.984;5.822;2024-01-30T12:03:28;12.00;99.90
24448;DHT22;13348;50.984;5.822;2024-01-30T12:05:57;11.90;99.90
24448;DHT22;13348;50.984;5.822;2024-01-30T12:08:25;11.90;99.90
24448;DHT22;13348;50.984;5.822;2024-01-30T12:10:56;11.90;99.90
24448;DHT22;13348;50.984;5.822;2024-01-30T12:13:23;11.90;99.90
24448;DHT22;13348;50.984;5.822;2024-01-30T12:15:50;11.80;99.90
24448;DHT22;13348;50.984;5.822;2024-01-30T12:18:18;11.80;99.90
24448;DHT22;13348;50.984;5.822;2024-01-30T12:20:45;11.80;99.90
24448;DHT22;13348;50.984;5.822;2024-01-30T12:23:13;11.80;99.90
24448;DHT22;13348;50.984;5.822;2024-01-30T12:25:40;11.70;99.90
24448;DHT22;13348;50.984;5.822;2024-01-30T12:28:08;11.70;99.90
24448;DHT22;13348;50.984;5.822;2024-01-30T12:30:35;11.70;99.90
24448;DHT22;13348;50.984;5.822;2024-01-30T12:33:02;11.70;99.90
24448;DHT22;13348;50.984;5.822;2024-01-30T12:35:31;11.70;99.90
24448;DHT22;13348;50.984;5.822;2024-01-30T12:37:58;11.60;99.90
24448;DHT22;13348;50.984;5.822;2024-01-30T12:40:26;11.60;99.90
24448;DHT22;13348;50.984;5.822;2024-01-30T12:42:54;11.60;99.90
24448;DHT22;13348;50.984;5.822;2024-01-30T12:45:20;11.60;99.90
24448;DHT22;13348;50.984;5.822;2024-01-30T12:47:47;11.60;99.90
24448;DHT22;13348;50.984;5.822;2024-01-30T12:50:14;11.60;99.90
24448;DHT22;13348;50.984;5.822;2024-01-30T12:52:42;11.60;99.90
24448;DHT22;13348;50.984;5.822;2024-01-30T12:55:10;11.60;99.90
24448;DHT22;13348;50.984;5.822;2024-01-30T12:57:38;11.60;99.90
24448;DHT22;13348;50.984;5.822;2024-01-30T13:00:05;11.60;99.90
24448;DHT22;13348;50.984;5.822;2024-01-30T13:02:33;11.60;99.90
24448;DHT22;13348;50.984;5.822;2024-01-30T13:05:02;11.60;99.90
24448;DHT22;13348;50.984;5.822;2024-01-30T13:07:29;11.70;99.90
24448;DHT22;13348;50.984;5.822;2024-01-30T13:09:56;11.70;99.90
24448;DHT22;13348;50.984;5.822;2024-01-30T13:12:27;11.70;99.90
24448;DHT22;13348;50.984;5.822;2024-01-30T13:14:56;11.80;99.90
24448;DHT22;13348;50.984;5.822;2024-01-30T13:17:23;11.90;99.90
24448;DHT22;13348;50.984;5.822;2024-01-30T13:19:50;12.00;99.90
24448;DHT22;13348;50.984;5.822;2024-01-30T13:22:17;12.00;99.90
24448;DHT22;13348;50.984;5.822;2024-01-30T13:24:46;12.10;99.90
24448;DHT22;13348;50.984;5.822;2024-01-30T13:27:13;12.00;99.90
24448;DHT22;13348;50.984;5.822;2024-01-30T13:29:40;12.00;99.90
24448;DHT22;13348;50.984;5.822;2024-01-30T13:32:08;12.30;99.90
24448;DHT22;13348;50.984;5.822;2024-01-30T13:34:36;12.30;99.90
24448;DHT22;13348;50.984;5.822;2024-01-30T13:37:03;12.40;99.90
24448;DHT22;13348;50.984;5.822;2024-01-30T13:39:29;12.30;99.90
24448;DHT22;13348;50.984;5.822;2024-01-30T13:41:56;12.30;99.90
24448;DHT22;13348;50.984;5.822;2024-01-30T13:44:23;12.20;99.90
24448;DHT22;13348;50.984;5.822;2024-01-30T13:46:50;12.10;99.90
24448;DHT22;13348;50.984;5.822;2024-01-30T13:49:18;12.00;99.90
24448;DHT22;13348;50.984;5.822;2024-01-30T13:51:45;11.80;99.90
24448;DHT22;13348;50.984;5.822;2024-01-30T13:54:12;11.70;99.90
24448;DHT22;13348;50.984;5.822;2024-01-30T13:56:40;11.60;99.90
24448;DHT22;13348;50.984;5.822;2024-01-30T13:59:07;11.50;99.90
24448;DHT22;13348;50.984;5.822;2024-01-30T14:01:34;11.50;99.90
24448;DHT22;13348;50.984;5.822;2024-01-30T14:04:01;11.50;99.90
24448;DHT22;13348;50.984;5.822;2024-01-30T14:06:29;11.40;99.90
24448;DHT22;13348;50.984;5.822;2024-01-30T14:08:56;11.40;99.90
24448;DHT22;13348;50.984;5.822;2024-01-30T14:11:23;11.40;99.90
24448;DHT22;13348;50.984;5.822;2024-01-30T14:13:50;11.40;99.90
24448;DHT22;13348;50.984;5.822;2024-01-30T14:16:17;11.40;99.90
24448;DHT22;13348;50.984;5.822;2024-01-30T14:18:45;11.40;99.90
24448;DHT22;13348;50.984;5.822;2024-01-30T14:21:12;11.40;99.90
24448;DHT22;13348;50.984;5.822;2024-01-30T14:23:40;11.30;99.90
24448;DHT22;13348;50.984;5.822;2024-01-30T14:26:07;11.30;99.90
24448;DHT22;13348;50.984;5.822;2024-01-30T14:28:33;11.20;99.90
24448;DHT22;13348;50.984;5.822;2024-01-30T14:31:00;11.10;99.90
24448;DHT22;13348;50.984;5.822;2024-01-30T14:33:27;11.20;99.90
24448;DHT22;13348;50.984;5.822;2024-01-30T14:35:54;11.10;99.90
24448;DHT22;13348;50.984;5.822;2024-01-30T14:38:21;11.10;99.90
24448;DHT22;13348;50.984;5.822;2024-01-30T14:40:51;11.10;99.90
24448;DHT22;13348;50.984;5.822;2024-01-30T14:43:18;11.10;99.90
24448;DHT22;13348;50.984;5.822;2024-01-30T14:45:45;11.10;99.90
24448;DHT22;13348;50.984;5.822;2024-01-30T14:48:14;11.10;99.90
24448;DHT22;13348;50.984;5.822;2024-01-30T14:50:41;11.20;99.90
24448;DHT22;13348;50.984;5.822;2024-01-30T14:53:08;11.30;99.90
24448;DHT22;13348;50.984;5.822;2024-01-30T14:55:35;11.20;99.90
24448;DHT22;13348;50.984;5.822;2024-01-30T14:58:03;11.20;99.90
24448;DHT22;13348;50.984;5.822;2024-01-30T15:00:31;11.10;99.90
24448;DHT22;13348;50.984;5.822;2024-01-30T15:02:58;11.30;99.90
24448;DHT22;13348;50.984;5.822;2024-01-30T15:05:25;11.60;99.90
24448;DHT22;13348;50.984;5.822;2024-01-30T15:07:52;12.00;99.90
24448;DHT22;13348;50.984;5.822;2024-01-30T15:10:18;12.30;99.90
24448;DHT22;13348;50.984;5.822;2024-01-30T15:12:45;11.80;99.90
24448;DHT22;13348;50.984;5.822;2024-01-30T15:15:14;12.10;99.90
24448;DHT22;13348;50.984;5.822;2024-01-30T15:17:41;12.50;99.90
24448;DHT22;13348;50.984;5.822;2024-01-30T15:20:08;12.60;99.90
24448;DHT22;13348;50.984;5.822;2024-01-30T15:22:35;12.90;99.90
24448;DHT22;13348;50.984;5.822;2024-01-30T15:25:02;12.90;99.90
24448;DHT22;13348;50.984;5.822;2024-01-30T15:27:29;12.80;99.90
24448;DHT22;13348;50.984;5.822;2024-01-30T15:29:56;12.60;99.90
24448;DHT22;13348;50.984;5.822;2024-01-30T15:32:25;12.30;99.90